sensor_id;sensor_type;location;lat;lon;timestamp;pressure;altitude;pressure_sealevel;temperature;humidity
64853;BME280;56050;55.558;-4.644;2023-11-19T00:01:34;99529.81;;;13.37;83.30
64853;BME280;56050;55.558;-4.644;2023-11-19T00:04:00;99520.19;;;13.36;83.32
64853;BME280;56050;55.558;-4.644;2023-11-19T00:06:25;99528.63;;;13.38;83.59
64853;BME280;56050;55.558;-4.644;2023-11-19T00:08:51;99529.06;;;13.36;83.35
64853;BME280;56050;55.558;-4.644;2023-11-19T00:11:17;99525.16;;;13.37;83.58
64853;BME280;56050;55.558;-4.644;2023-11-19T00:13:42;99524.28;;;13.40;83.37
64853;BME280;56050;55.558;-4.644;2023-11-19T00:16:08;99516.19;;;13.40;83.18
64853;BME280;56050;55.558;-4.644;2023-11-19T00:18:35;99522.34;;;13.41;83.13
64853;BME280;56050;55.558;-4.644;2023-11-19T00:21:01;99520.81;;;13.40;83.45
64853;BME280;56050;55.558;-4.644;2023-11-19T00:23:27;99529.69;;;13.40;83.35
64853;BME280;56050;55.558;-4.644;2023-11-19T00:25:53;99527.31;;;13.42;83.41
64853;BME280;56050;55.558;-4.644;2023-11-19T00:28:18;99528.84;;;13.43;83.45
64853;BME280;56050;55.558;-4.644;2023-11-19T00:30:44;99531.84;;;13.45;83.34
64853;BME280;56050;55.558;-4.644;2023-11-19T00:33:09;99531.09;;;13.45;83.40
64853;BME280;56050;55.558;-4.644;2023-11-19T00:35:35;99526.44;;;13.45;83.28
64853;BME280;56050;55.558;-4.644;2023-11-19T00:38:01;99538.03;;;13.46;83.38
64853;BME280;56050;55.558;-4.644;2023-11-19T00:40:28;99520.28;;;13.45;83.22
64853;BME280;56050;55.558;-4.644;2023-11-19T00:42:53;99531.84;;;13.45;83.14
64853;BME280;56050;55.558;-4.644;2023-11-19T00:45:19;99521.78;;;13.46;83.36
64853;BME280;56050;55.558;-4.644;2023-11-19T00:47:44;99532.63;;;13.46;83.27
64853;BME280;56050;55.558;-4.644;2023-11-19T00:50:10;99532.63;;;13.46;83.18
64853;BME280;56050;55.558;-4.644;2023-11-19T00:52:37;99529.16;;;13.45;83.13
64853;BME280;56050;55.558;-4.644;2023-11-19T00:55:03;99527.97;;;13.46;83.19
64853;BME280;56050;55.558;-4.644;2023-11-19T00:57:30;99520.63;;;13.47;83.29
64853;BME280;56050;55.558;-4.644;2023-11-19T00:59:58;99530.22;;;13.48;83.24
64853;BME280;56050;55.558;-4.644;2023-11-19T01:02:24;99528.59;;;13.50;83.42
64853;BME280;56050;55.558;-4.644;2023-11-19T01:04:50;99525.47;;;13.52;83.34
64853;BME280;56050;55.558;-4.644;2023-11-19T01:07:15;99520.38;;;13.54;83.25
64853;BME280;56050;55.558;-4.644;2023-11-19T01:09:42;99517.25;;;13.56;83.17
64853;BME280;56050;55.558;-4.644;2023-11-19T01:12:07;99511.84;;;13.56;83.07
64853;BME280;56050;55.558;-4.644;2023-11-19T01:14:34;99514.56;;;13.56;83.01
64853;BME280;56050;55.558;-4.644;2023-11-19T01:17:00;99512.56;;;13.56;82.88
64853;BME280;56050;55.558;-4.644;2023-11-19T01:19:26;99509.88;;;13.56;83.02
64853;BME280;56050;55.558;-4.644;2023-11-19T01:21:53;99509.13;;;13.56;82.84
64853;BME280;56050;55.558;-4.644;2023-11-19T01:24:19;99501.75;;;13.56;82.84
64853;BME280;56050;55.558;-4.644;2023-11-19T01:26:44;99510.63;;;13.57;83.10
64853;BME280;56050;55.558;-4.644;2023-11-19T01:29:13;99510.63;;;13.57;82.87
64853;BME280;56050;55.558;-4.644;2023-11-19T01:31:42;99510.22;;;13.58;83.09
64853;BME280;56050;55.558;-4.644;2023-11-19T01:34:08;99509.88;;;13.56;82.81
64853;BME280;56050;55.558;-4.644;2023-11-19T01:36:34;99512.25;;;13.54;83.08
64853;BME280;56050;55.558;-4.644;2023-11-19T01:39:00;99508.06;;;13.53;82.81
64853;BME280;56050;55.558;-4.644;2023-11-19T01:41:25;99499.19;;;13.52;82.93
64853;BME280;56050;55.558;-4.644;2023-11-19T01:43:51;99507.72;;;13.51;82.72
64853;BME280;56050;55.558;-4.644;2023-11-19T01:46:16;99506.53;;;13.52;82.81
64853;BME280;56050;55.558;-4.644;2023-11-19T01:48:45;99506.97;;;13.50;82.83
64853;BME280;56050;55.558;-4.644;2023-11-19T01:51:12;99508.59;;;13.48;82.88
64853;BME280;56050;55.558;-4.644;2023-11-19T01:53:43;99515.97;;;13.47;82.76
64853;BME280;56050;55.558;-4.644;2023-11-19T01:56:09;99517.56;;;13.45;82.69
64853;BME280;56050;55.558;-4.644;2023-11-19T01:58:36;99521.47;;;13.44;83.05
64853;BME280;56050;55.558;-4.644;2023-11-19T02:01:02;99525.38;;;13.43;82.83
64853;BME280;56050;55.558;-4.644;2023-11-19T02:03:31;99518.56;;;13.38;82.93
64853;BME280;56050;55.558;-4.644;2023-11-19T02:05:58;99516.28;;;13.37;82.68
64853;BME280;56050;55.558;-4.644;2023-11-19T02:08:24;99521.47;;;13.31;82.76
64853;BME280;56050;55.558;-4.644;2023-11-19T02:10:50;99516.94;;;13.28;82.77
64853;BME280;56050;55.558;-4.644;2023-11-19T02:13:15;99508.50;;;13.26;83.04
64853;BME280;56050;55.558;-4.644;2023-11-19T02:15:41;99509.72;;;13.25;82.98
64853;BME280;56050;55.558;-4.644;2023-11-19T02:18:30;99511.66;;;13.25;83.34
64853;BME280;56050;55.558;-4.644;2023-11-19T02:20:57;99508.94;;;13.25;82.93
64853;BME280;56050;55.558;-4.644;2023-11-19T02:23:23;99510.44;;;13.26;83.08
64853;BME280;56050;55.558;-4.644;2023-11-19T02:28:43;99514.97;;;13.29;82.93
64853;BME280;56050;55.558;-4.644;2023-11-19T02:31:10;99514.56;;;13.30;83.11
64853;BME280;56050;55.558;-4.644;2023-11-19T02:33:36;99507.22;;;13.31;83.20
64853;BME280;56050;55.558;-4.644;2023-11-19T02:36:04;99514.13;;;13.32;83.11
64853;BME280;56050;55.558;-4.644;2023-11-19T02:38:29;99512.94;;;13.33;83.28
64853;BME280;56050;55.558;-4.644;2023-11-19T02:40:56;99504.81;;;13.33;83.07
64853;BME280;56050;55.558;-4.644;2023-11-19T02:43:22;99511.00;;;13.33;82.99
64853;BME280;56050;55.558;-4.644;2023-11-19T02:45:48;99510.56;;;13.35;83.13
64853;BME280;56050;55.558;-4.644;2023-11-19T02:48:13;99510.13;;;13.36;82.77
64853;BME280;56050;55.558;-4.644;2023-11-19T02:50:43;99509.69;;;13.38;82.90
64853;BME280;56050;55.558;-4.644;2023-11-19T02:53:09;99502.03;;;13.36;82.75
64853;BME280;56050;55.558;-4.644;2023-11-19T02:55:34;99500.50;;;13.35;82.87
64853;BME280;56050;55.558;-4.644;2023-11-19T02:58:04;99506.66;;;13.36;82.86
64853;BME280;56050;55.558;-4.644;2023-11-19T03:00:45;99507.44;;;13.36;82.56
64853;BME280;56050;55.558;-4.644;2023-11-19T03:03:17;99512.84;;;13.36;82.64
64853;BME280;56050;55.558;-4.644;2023-11-19T03:05:48;99507.09;;;13.34;82.82
64853;BME280;56050;55.558;-4.644;2023-11-19T03:08:17;99502.44;;;13.35;82.93
64853;BME280;56050;55.558;-4.644;2023-11-19T03:10:42;99496.25;;;13.34;82.88
64853;BME280;56050;55.558;-4.644;2023-11-19T03:13:13;99510.56;;;13.35;82.75
64853;BME280;56050;55.558;-4.644;2023-11-19T03:15:44;99508.16;;;13.37;82.81
64853;BME280;56050;55.558;-4.644;2023-11-19T03:18:11;99506.22;;;13.37;82.80
64853;BME280;56050;55.558;-4.644;2023-11-19T03:20:36;99509.69;;;13.38;82.66
64853;BME280;56050;55.558;-4.644;2023-11-19T03:23:02;99502.75;;;13.37;82.62
64853;BME280;56050;55.558;-4.644;2023-11-19T03:25:27;99506.66;;;13.36;82.79
64853;BME280;56050;55.558;-4.644;2023-11-19T03:28:00;99503.97;;;13.36;82.71
64853;BME280;56050;55.558;-4.644;2023-11-19T03:30:29;99500.03;;;13.37;82.82
64853;BME280;56050;55.558;-4.644;2023-11-19T03:32:57;99507.44;;;13.36;82.96
64853;BME280;56050;55.558;-4.644;2023-11-19T03:35:24;99506.22;;;13.37;82.72
64853;BME280;56050;55.558;-4.644;2023-11-19T03:37:50;99503.09;;;13.39;82.72
64853;BME280;56050;55.558;-4.644;2023-11-19T03:40:16;99501.88;;;13.40;83.03
64853;BME280;56050;55.558;-4.644;2023-11-19T03:42:42;99492.59;;;13.41;82.76
64853;BME280;56050;55.558;-4.644;2023-11-19T03:45:07;99501.47;;;13.41;82.82
64853;BME280;56050;55.558;-4.644;2023-11-19T03:47:37;99500.72;;;13.41;82.56
64853;BME280;56050;55.558;-4.644;2023-11-19T03:50:03;99496.94;;;13.38;82.48
64853;BME280;56050;55.558;-4.644;2023-11-19T03:52:29;99498.41;;;13.39;82.50
64853;BME280;56050;55.558;-4.644;2023-11-19T03:54:55;99498.09;;;13.37;82.45
64853;BME280;56050;55.558;-4.644;2023-11-19T03:57:22;99502.44;;;13.35;82.46
64853;BME280;56050;55.558;-4.644;2023-11-19T03:59:48;99499.09;;;13.31;82.42
64853;BME280;56050;55.558;-4.644;2023-11-19T04:02:14;99504.63;;;13.27;82.59
64853;BME280;56050;55.558;-4.644;2023-11-19T04:04:40;99500.84;;;13.25;82.65
64853;BME280;56050;55.558;-4.644;2023-11-19T04:07:05;99508.28;;;13.21;82.74
64853;BME280;56050;55.558;-4.644;2023-11-19T04:09:31;99509.16;;;13.18;82.57
64853;BME280;56050;55.558;-4.644;2023-11-19T04:11:59;99504.28;;;13.13;82.73
64853;BME280;56050;55.558;-4.644;2023-11-19T04:14:25;99504.81;;;13.08;82.78
64853;BME280;56050;55.558;-4.644;2023-11-19T04:16:51;99504.47;;;13.06;82.97
64853;BME280;56050;55.558;-4.644;2023-11-19T04:19:17;99505.34;;;13.03;83.18
64853;BME280;56050;55.558;-4.644;2023-11-19T04:21:43;99513.44;;;13.03;82.93
64853;BME280;56050;55.558;-4.644;2023-11-19T04:24:09;99525.53;;;12.98;83.08
64853;BME280;56050;55.558;-4.644;2023-11-19T04:26:44;99519.19;;;12.92;82.78
64853;BME280;56050;55.558;-4.644;2023-11-19T04:29:14;99518.19;;;12.86;82.94
64853;BME280;56050;55.558;-4.644;2023-11-19T04:31:41;99512.97;;;12.79;83.07
64853;BME280;56050;55.558;-4.644;2023-11-19T04:34:06;99512.34;;;12.75;82.90
64853;BME280;56050;55.558;-4.644;2023-11-19T04:36:32;99508.63;;;12.69;82.99
64853;BME280;56050;55.558;-4.644;2023-11-19T04:39:01;99511.03;;;12.67;83.12
64853;BME280;56050;55.558;-4.644;2023-11-19T04:41:27;99505.72;;;12.63;83.26
64853;BME280;56050;55.558;-4.644;2023-11-19T04:43:56;99500.75;;;12.62;83.40
64853;BME280;56050;55.558;-4.644;2023-11-19T04:46:22;99504.19;;;12.62;83.46
64853;BME280;56050;55.558;-4.644;2023-11-19T04:48:49;99503.44;;;12.62;83.35
64853;BME280;56050;55.558;-4.644;2023-11-19T04:51:15;99504.19;;;12.62;83.55
64853;BME280;56050;55.558;-4.644;2023-11-19T04:53:40;99497.59;;;12.63;83.55
64853;BME280;56050;55.558;-4.644;2023-11-19T04:56:10;99501.84;;;12.64;83.18
64853;BME280;56050;55.558;-4.644;2023-11-19T04:58:36;99502.56;;;12.65;83.39
64853;BME280;56050;55.558;-4.644;2023-11-19T05:01:03;99504.94;;;12.63;83.25
64853;BME280;56050;55.558;-4.644;2023-11-19T05:03:32;99499.22;;;12.61;83.34
64853;BME280;56050;55.558;-4.644;2023-11-19T05:05:58;99501.59;;;12.59;82.99
64853;BME280;56050;55.558;-4.644;2023-11-19T05:08:24;99504.72;;;12.57;83.16
64853;BME280;56050;55.558;-4.644;2023-11-19T05:10:49;99503.63;;;12.55;83.06
64853;BME280;56050;55.558;-4.644;2023-11-19T05:13:15;99498.66;;;12.53;83.23
64853;BME280;56050;55.558;-4.644;2023-11-19T05:15:40;99506.00;;;12.53;83.14
64853;BME280;56050;55.558;-4.644;2023-11-19T05:18:06;99499.09;;;12.52;83.24
64853;BME280;56050;55.558;-4.644;2023-11-19T05:20:31;99501.03;;;12.51;83.37
64853;BME280;56050;55.558;-4.644;2023-11-19T05:22:57;99503.31;;;12.53;83.29
64853;BME280;56050;55.558;-4.644;2023-11-19T05:25:26;99516.28;;;12.58;83.40
64853;BME280;56050;55.558;-4.644;2023-11-19T05:27:52;99510.47;;;12.59;83.42
64853;BME280;56050;55.558;-4.644;2023-11-19T05:30:17;99499.97;;;12.61;83.38
64853;BME280;56050;55.558;-4.644;2023-11-19T05:32:43;99501.47;;;12.62;83.46
64853;BME280;56050;55.558;-4.644;2023-11-19T05:35:08;99504.84;;;12.66;83.51
64853;BME280;56050;55.558;-4.644;2023-11-19T05:37:34;99502.91;;;12.67;83.70
64853;BME280;56050;55.558;-4.644;2023-11-19T05:40:00;99509.81;;;12.68;83.60
64853;BME280;56050;55.558;-4.644;2023-11-19T05:42:28;99509.81;;;12.68;83.29
64853;BME280;56050;55.558;-4.644;2023-11-19T05:44:53;99505.16;;;12.68;83.28
64853;BME280;56050;55.558;-4.644;2023-11-19T05:47:19;99505.94;;;12.69;83.37
64853;BME280;56050;55.558;-4.644;2023-11-19T05:49:45;99507.03;;;12.71;83.63
64853;BME280;56050;55.558;-4.644;2023-11-19T05:52:10;99506.59;;;12.73;83.42
64853;BME280;56050;55.558;-4.644;2023-11-19T05:54:37;99498.81;;;12.75;83.55
64853;BME280;56050;55.558;-4.644;2023-11-19T05:57:06;99494.91;;;12.76;83.43
64853;BME280;56050;55.558;-4.644;2023-11-19T05:59:34;99502.16;;;12.79;83.28
64853;BME280;56050;55.558;-4.644;2023-11-19T06:02:02;99503.69;;;12.80;83.46
64853;BME280;56050;55.558;-4.644;2023-11-19T06:04:27;99505.22;;;12.81;83.39
64853;BME280;56050;55.558;-4.644;2023-11-19T06:06:53;99505.53;;;12.83;83.34
64853;BME280;56050;55.558;-4.644;2023-11-19T06:09:20;99504.34;;;12.84;83.46
64853;BME280;56050;55.558;-4.644;2023-11-19T06:11:46;99510.84;;;12.86;83.27
64853;BME280;56050;55.558;-4.644;2023-11-19T06:14:12;99503.47;;;12.87;83.29
64853;BME280;56050;55.558;-4.644;2023-11-19T06:16:37;99510.84;;;12.86;83.45
64853;BME280;56050;55.558;-4.644;2023-11-19T06:19:05;99506.94;;;12.87;83.40
64853;BME280;56050;55.558;-4.644;2023-11-19T06:21:30;99518.50;;;12.88;83.43
64853;BME280;56050;55.558;-4.644;2023-11-19T06:23:56;99520.44;;;12.87;83.16
64853;BME280;56050;55.558;-4.644;2023-11-19T06:26:21;99515.50;;;12.86;83.13
64853;BME280;56050;55.558;-4.644;2023-11-19T06:28:47;99518.19;;;12.86;83.30
64853;BME280;56050;55.558;-4.644;2023-11-19T06:31:13;99512.78;;;12.86;83.06
64853;BME280;56050;55.558;-4.644;2023-11-19T06:33:41;99515.91;;;12.84;83.15
64853;BME280;56050;55.558;-4.644;2023-11-19T06:36:07;99512.88;;;12.82;83.24
64853;BME280;56050;55.558;-4.644;2023-11-19T06:38:34;99510.63;;;12.81;83.09
64853;BME280;56050;55.558;-4.644;2023-11-19T06:41:00;99514.50;;;12.80;83.40
64853;BME280;56050;55.558;-4.644;2023-11-19T06:43:25;99520.66;;;12.80;83.35
64853;BME280;56050;55.558;-4.644;2023-11-19T06:45:51;99518.38;;;12.79;83.39
64853;BME280;56050;55.558;-4.644;2023-11-19T06:48:16;99525.41;;;12.76;83.18
64853;BME280;56050;55.558;-4.644;2023-11-19T06:50:42;99520.75;;;12.77;83.15
64853;BME280;56050;55.558;-4.644;2023-11-19T06:53:07;99522.69;;;12.76;83.15
64853;BME280;56050;55.558;-4.644;2023-11-19T06:55:35;99519.22;;;12.76;83.34
64853;BME280;56050;55.558;-4.644;2023-11-19T06:58:01;99519.22;;;12.76;83.22
64853;BME280;56050;55.558;-4.644;2023-11-19T07:00:28;99517.28;;;12.76;83.18
64853;BME280;56050;55.558;-4.644;2023-11-19T07:02:53;99521.53;;;12.77;83.57
64853;BME280;56050;55.558;-4.644;2023-11-19T07:05:19;99524.53;;;12.79;83.22
64853;BME280;56050;55.558;-4.644;2023-11-19T07:07:44;99520.66;;;12.80;83.02
64853;BME280;56050;55.558;-4.644;2023-11-19T07:10:12;99522.94;;;12.82;83.25
64853;BME280;56050;55.558;-4.644;2023-11-19T07:12:37;99527.16;;;12.83;83.38
64853;BME280;56050;55.558;-4.644;2023-11-19T07:15:04;99520.13;;;12.85;83.31
64853;BME280;56050;55.558;-4.644;2023-11-19T07:17:30;99525.84;;;12.87;83.23
64853;BME280;56050;55.558;-4.644;2023-11-19T07:19:56;99535.50;;;12.88;83.14
64853;BME280;56050;55.558;-4.644;2023-11-19T07:22:24;99530.84;;;12.89;83.29
64853;BME280;56050;55.558;-4.644;2023-11-19T07:24:50;99537.34;;;12.91;83.19
64853;BME280;56050;55.558;-4.644;2023-11-19T07:27:17;99534.63;;;12.91;83.10
64853;BME280;56050;55.558;-4.644;2023-11-19T07:29:43;99529.53;;;12.93;83.05
64853;BME280;56050;55.558;-4.644;2023-11-19T07:32:10;99532.56;;;12.95;83.25
64853;BME280;56050;55.558;-4.644;2023-11-19T07:34:35;99541.03;;;12.98;83.12
64853;BME280;56050;55.558;-4.644;2023-11-19T07:37:01;99537.88;;;12.99;83.09
64853;BME280;56050;55.558;-4.644;2023-11-19T07:39:28;99536.34;;;12.98;83.05
64853;BME280;56050;55.558;-4.644;2023-11-19T07:41:54;99537.13;;;12.98;83.11
64853;BME280;56050;55.558;-4.644;2023-11-19T07:44:20;99532.47;;;12.99;82.93
64853;BME280;56050;55.558;-4.644;2023-11-19T07:46:47;99534.41;;;12.98;83.23
64853;BME280;56050;55.558;-4.644;2023-11-19T07:49:13;99537.13;;;12.98;83.07
64853;BME280;56050;55.558;-4.644;2023-11-19T07:51:39;99537.13;;;12.98;83.09
64853;BME280;56050;55.558;-4.644;2023-11-19T07:54:05;99536.78;;;12.96;83.04
64853;BME280;56050;55.558;-4.644;2023-11-19T07:56:33;99531.84;;;12.95;82.99
64853;BME280;56050;55.558;-4.644;2023-11-19T07:58:59;99533.34;;;12.96;83.18
64853;BME280;56050;55.558;-4.644;2023-11-19T08:01:25;99539.50;;;12.96;83.03
64853;BME280;56050;55.558;-4.644;2023-11-19T08:03:50;99539.50;;;12.96;83.09
64853;BME280;56050;55.558;-4.644;2023-11-19T08:06:16;99543.38;;;12.95;83.19
64853;BME280;56050;55.558;-4.644;2023-11-19T08:08:41;99548.38;;;12.97;82.97
64853;BME280;56050;55.558;-4.644;2023-11-19T08:11:07;99544.91;;;12.96;83.28
64853;BME280;56050;55.558;-4.644;2023-11-19T08:13:32;99551.84;;;12.98;83.13
64853;BME280;56050;55.558;-4.644;2023-11-19T08:15:58;99545.66;;;12.97;83.11
64853;BME280;56050;55.558;-4.644;2023-11-19T08:18:24;99547.59;;;12.96;82.91
64853;BME280;56050;55.558;-4.644;2023-11-19T08:20:49;99541.03;;;12.98;83.12
64853;BME280;56050;55.558;-4.644;2023-11-19T08:23:18;99544.81;;;13.00;83.11
64853;BME280;56050;55.558;-4.644;2023-11-19T08:25:43;99542.44;;;13.02;83.12
64853;BME280;56050;55.558;-4.644;2023-11-19T08:28:09;99549.22;;;13.07;83.20
64853;BME280;56050;55.558;-4.644;2023-11-19T08:30:35;99553.03;;;13.09;83.00
64853;BME280;56050;55.558;-4.644;2023-11-19T08:33:00;99552.94;;;13.13;83.32
64853;BME280;56050;55.558;-4.644;2023-11-19T08:35:28;99555.25;;;13.14;82.98
64853;BME280;56050;55.558;-4.644;2023-11-19T08:37:54;99558.69;;;13.15;83.04
64853;BME280;56050;55.558;-4.644;2023-11-19T08:40:19;99564.84;;;13.15;82.88
64853;BME280;56050;55.558;-4.644;2023-11-19T08:42:45;99560.97;;;13.16;82.94
64853;BME280;56050;55.558;-4.644;2023-11-19T08:45:11;99561.28;;;13.18;83.03
64853;BME280;56050;55.558;-4.644;2023-11-19T08:47:37;99566.28;;;13.20;82.90
64853;BME280;56050;55.558;-4.644;2023-11-19T08:50:03;99566.69;;;13.18;83.04
64853;BME280;56050;55.558;-4.644;2023-11-19T08:52:29;99569.41;;;13.18;82.83
64853;BME280;56050;55.558;-4.644;2023-11-19T08:54:55;99571.69;;;13.20;82.91
64853;BME280;56050;55.558;-4.644;2023-11-19T08:57:21;99565.84;;;13.21;82.86
64853;BME280;56050;55.558;-4.644;2023-11-19T08:59:46;99570.38;;;13.24;83.10
64853;BME280;56050;55.558;-4.644;2023-11-19T09:02:12;99572.66;;;13.26;83.01
64853;BME280;56050;55.558;-4.644;2023-11-19T09:04:37;99578.81;;;13.26;83.01
64853;BME280;56050;55.558;-4.644;2023-11-19T09:07:03;99568.31;;;13.28;82.89
64853;BME280;56050;55.558;-4.644;2023-11-19T09:09:29;99578.72;;;13.30;83.00
64853;BME280;56050;55.558;-4.644;2023-11-19T09:11:55;99583.69;;;13.31;83.15
64853;BME280;56050;55.558;-4.644;2023-11-19T09:14:21;99573.94;;;13.34;82.86
64853;BME280;56050;55.558;-4.644;2023-11-19T09:16:51;99580.47;;;13.36;83.06
64853;BME280;56050;55.558;-4.644;2023-11-19T09:19:16;99583.91;;;13.37;82.59
64853;BME280;56050;55.558;-4.644;2023-11-19T09:21:42;99583.50;;;13.38;82.64
64853;BME280;56050;55.558;-4.644;2023-11-19T09:24:08;99580.34;;;13.40;82.93
64853;BME280;56050;55.558;-4.644;2023-11-19T09:26:33;99577.63;;;13.40;82.57
64853;BME280;56050;55.558;-4.644;2023-11-19T09:29:01;99583.38;;;13.42;82.95
64853;BME280;56050;55.558;-4.644;2023-11-19T09:31:26;99593.00;;;13.43;82.99
64853;BME280;56050;55.558;-4.644;2023-11-19T09:33:52;99586.41;;;13.44;82.77
64853;BME280;56050;55.558;-4.644;2023-11-19T09:36:17;99580.56;;;13.45;82.55
64853;BME280;56050;55.558;-4.644;2023-11-19T09:38:44;99585.56;;;13.47;82.74
64853;BME280;56050;55.558;-4.644;2023-11-19T09:41:10;99581.97;;;13.50;82.63
64853;BME280;56050;55.558;-4.644;2023-11-19T09:43:42;99590.41;;;13.52;82.71
64853;BME280;56050;55.558;-4.644;2023-11-19T09:46:11;99588.47;;;13.52;82.98
64853;BME280;56050;55.558;-4.644;2023-11-19T09:48:38;99594.50;;;13.57;82.69
64853;BME280;56050;55.558;-4.644;2023-11-19T09:51:07;99588.34;;;13.56;82.87
64853;BME280;56050;55.558;-4.644;2023-11-19T09:53:34;99599.94;;;13.57;82.83
64853;BME280;56050;55.558;-4.644;2023-11-19T09:56:00;99594.50;;;13.57;82.78
64853;BME280;56050;55.558;-4.644;2023-11-19T09:58:28;99601.47;;;13.58;82.56
64853;BME280;56050;55.558;-4.644;2023-11-19T10:00:54;99601.88;;;13.56;82.79
64853;BME280;56050;55.558;-4.644;2023-11-19T10:03:19;99608.03;;;13.57;82.87
64853;BME280;56050;55.558;-4.644;2023-11-19T10:05:46;99606.09;;;13.57;82.70
64853;BME280;56050;55.558;-4.644;2023-11-19T10:08:11;99614.22;;;13.57;82.58
64853;BME280;56050;55.558;-4.644;2023-11-19T10:10:37;99616.94;;;13.57;82.74
64853;BME280;56050;55.558;-4.644;2023-11-19T10:13:03;99618.09;;;13.56;82.48
64853;BME280;56050;55.558;-4.644;2023-11-19T10:15:35;99618.56;;;13.54;82.45
64853;BME280;56050;55.558;-4.644;2023-11-19T10:18:02;99622.88;;;13.52;82.54
64853;BME280;56050;55.558;-4.644;2023-11-19T10:20:35;99618.66;;;13.51;82.59
64853;BME280;56050;55.558;-4.644;2023-11-19T10:23:02;99627.97;;;13.50;82.75
64853;BME280;56050;55.558;-4.644;2023-11-19T10:25:28;99630.34;;;13.48;82.71
64853;BME280;56050;55.558;-4.644;2023-11-19T10:27:57;99628.06;;;13.46;82.93
64853;BME280;56050;55.558;-4.644;2023-11-19T10:30:25;99630.00;;;13.46;82.79
64853;BME280;56050;55.558;-4.644;2023-11-19T10:33:10;99634.25;;;13.47;82.81
64853;BME280;56050;55.558;-4.644;2023-11-19T10:35:54;99630.69;;;13.50;82.70
64853;BME280;56050;55.558;-4.644;2023-11-19T10:38:20;99635.22;;;13.53;82.94
64853;BME280;56050;55.558;-4.644;2023-11-19T10:40:47;99635.56;;;13.55;82.81
64853;BME280;56050;55.558;-4.644;2023-11-19T10:43:13;99642.03;;;13.58;82.89
64853;BME280;56050;55.558;-4.644;2023-11-19T10:45:39;99643.56;;;13.59;82.89
64853;BME280;56050;55.558;-4.644;2023-11-19T10:48:06;99640.09;;;13.58;82.93
64853;BME280;56050;55.558;-4.644;2023-11-19T10:50:36;99647.00;;;13.59;82.88
64853;BME280;56050;55.558;-4.644;2023-11-19T10:53:03;99648.53;;;13.60;82.94
64853;BME280;56050;55.558;-4.644;2023-11-19T10:55:30;99645.84;;;13.60;82.60
64853;BME280;56050;55.558;-4.644;2023-11-19T10:58:03;99640.41;;;13.60;83.11
64853;BME280;56050;55.558;-4.644;2023-11-19T11:00:37;99644.22;;;13.63;82.94
64853;BME280;56050;55.558;-4.644;2023-11-19T11:03:17;99640.97;;;13.68;82.83
64853;BME280;56050;55.558;-4.644;2023-11-19T11:05:43;99641.19;;;13.73;82.69
64853;BME280;56050;55.558;-4.644;2023-11-19T11:08:12;99648.44;;;13.76;82.73
64853;BME280;56050;55.558;-4.644;2023-11-19T11:10:59;99648.44;;;13.76;82.85
64853;BME280;56050;55.558;-4.644;2023-11-19T11:13:25;99645.19;;;13.81;82.81
64853;BME280;56050;55.558;-4.644;2023-11-19T11:15:53;99645.06;;;13.85;82.68
64853;BME280;56050;55.558;-4.644;2023-11-19T11:18:21;99650.38;;;13.88;82.88
64853;BME280;56050;55.558;-4.644;2023-11-19T11:20:49;99653.72;;;13.92;82.85
64853;BME280;56050;55.558;-4.644;2023-11-19T11:28:43;99651.88;;;14.02;82.62
64853;BME280;56050;55.558;-4.644;2023-11-19T11:31:26;99651.78;;;14.05;82.57
64853;BME280;56050;55.558;-4.644;2023-11-19T11:36:22;99656.75;;;14.07;82.25
64853;BME280;56050;55.558;-4.644;2023-11-19T11:38:49;99650.88;;;14.08;82.58
64853;BME280;56050;55.558;-4.644;2023-11-19T11:43:51;99651.66;;;14.09;82.37
64853;BME280;56050;55.558;-4.644;2023-11-19T11:49:05;99648.06;;;14.12;82.51
64853;BME280;56050;55.558;-4.644;2023-11-19T11:57:14;99662.69;;;14.14;82.28
64853;BME280;56050;55.558;-4.644;2023-11-19T12:02:11;99671.16;;;14.17;82.27
64853;BME280;56050;55.558;-4.644;2023-11-19T12:04:36;99671.59;;;14.15;82.17
64853;BME280;56050;55.558;-4.644;2023-11-19T12:07:14;99677.44;;;14.13;82.61
64853;BME280;56050;55.558;-4.644;2023-11-19T12:09:47;99673.88;;;14.17;82.20
64853;BME280;56050;55.558;-4.644;2023-11-19T12:20:02;99682.09;;;14.13;81.93
64853;BME280;56050;55.558;-4.644;2023-11-19T12:22:28;99679.06;;;14.11;82.17
64853;BME280;56050;55.558;-4.644;2023-11-19T12:24:54;99686.00;;;14.12;82.25
64853;BME280;56050;55.558;-4.644;2023-11-19T12:27:21;99677.44;;;14.13;82.24
64853;BME280;56050;55.558;-4.644;2023-11-19T12:29:49;99686.31;;;14.14;82.22
64853;BME280;56050;55.558;-4.644;2023-11-19T12:32:15;99689.78;;;14.14;82.48
64853;BME280;56050;55.558;-4.644;2023-11-19T12:34:41;99682.88;;;14.13;82.04
64853;BME280;56050;55.558;-4.644;2023-11-19T12:37:07;99688.28;;;14.13;82.19
64853;BME280;56050;55.558;-4.644;2023-11-19T12:39:35;99687.84;;;14.15;82.30
64853;BME280;56050;55.558;-4.644;2023-11-19T12:42:00;99682.41;;;14.15;82.19
64853;BME280;56050;55.558;-4.644;2023-11-19T12:44:26;99682.41;;;14.15;82.35
64853;BME280;56050;55.558;-4.644;2023-11-19T12:47:02;99682.00;;;14.17;82.54
64853;BME280;56050;55.558;-4.644;2023-11-19T12:49:28;99689.22;;;14.20;82.34
64853;BME280;56050;55.558;-4.644;2023-11-19T12:51:53;99696.94;;;14.21;82.62
64853;BME280;56050;55.558;-4.644;2023-11-19T12:54:19;99682.94;;;14.23;82.48
64853;BME280;56050;55.558;-4.644;2023-11-19T12:56:53;99687.19;;;14.24;82.48
64853;BME280;56050;55.558;-4.644;2023-11-19T12:59:19;99691.28;;;14.28;82.24
64853;BME280;56050;55.558;-4.644;2023-11-19T13:01:57;99696.28;;;14.30;82.29
64853;BME280;56050;55.558;-4.644;2023-11-19T13:04:22;99701.63;;;14.33;82.30
64853;BME280;56050;55.558;-4.644;2023-11-19T13:06:49;99696.19;;;14.33;82.13
64853;BME280;56050;55.558;-4.644;2023-11-19T13:09:28;99702.03;;;14.32;82.04
64853;BME280;56050;55.558;-4.644;2023-11-19T13:11:55;99704.66;;;14.35;82.25
64853;BME280;56050;55.558;-4.644;2023-11-19T13:14:22;99705.41;;;14.36;82.33
64853;BME280;56050;55.558;-4.644;2023-11-19T13:16:48;99708.13;;;14.36;82.27
64853;BME280;56050;55.558;-4.644;2023-11-19T13:19:14;99705.41;;;14.36;82.21
64853;BME280;56050;55.558;-4.644;2023-11-19T13:21:41;99709.63;;;14.37;82.20